KDUX

Moore County Airport

Dumas, Texas, USA
METAR KDUX 101515Z AUTO 31007KT 10SM CLR M02/M07 A3032 RMK AO2 T10211075
Observed Flight Rules
Dec-10 @ 15:15 UTC (16 minutes ago) Visual Flight Rules
Wind Visibility Clouds
310° at 7 knots 10 miles
  • Clear skies
Temperatures Readings
Current -2°C / 28°F
Dewpoint -8°C / 18°F
Humidity 64%
Altimeter 30.32" Hg
Pressure 1027 hPa
Elevation 1129
METAR KDUX 101515Z AUTO 31007KT 10SM CLR M02/M07 A3032 RMK AO2 T10211075
Observed Flight Rules
Dec-10 @ 15:15 UTC
(16 minutes ago)
VFR
Wind Visibility
310° at 7 knots 10 miles
Clouds
  • Clear skies
Temperature Dewpoint
-2°C / 28°F -8°C / 18°F
Humidity Altimeter Pressure
64% 30.32" Hg 1027 hPa